createdAt,value
2019-05-12T00:08:58.171Z,21.45
2019-05-12T00:24:14.351Z,24.35
2019-05-12T00:39:22.009Z,21.25
2019-05-12T00:54:30.562Z,20.68
2019-05-12T01:09:39.889Z,18.85
2019-05-12T01:24:48.302Z,17.27
2019-05-12T01:39:59.744Z,15.80
2019-05-12T01:55:08.207Z,15.83
2019-05-12T02:10:17.964Z,15.20
2019-05-12T02:25:24.818Z,17.90
2019-05-12T02:40:34.775Z,13.60
2019-05-12T02:55:47.889Z,15.80
2019-05-12T03:10:56.175Z,15.58
2019-05-12T03:26:05.181Z,15.55
2019-05-12T03:41:14.708Z,12.33
2019-05-12T03:56:25.972Z,11.83
2019-05-12T04:11:35.432Z,14.90
2019-05-12T04:26:44.634Z,15.55
2019-05-12T04:41:50.518Z,11.25
2019-05-12T04:56:58.345Z,12.82
2019-05-12T05:12:04.960Z,14.00
2019-05-12T05:27:13.330Z,10.50
2019-05-12T05:42:22.161Z,9.38
2019-05-12T05:57:30.361Z,8.05
2019-05-12T06:12:40.301Z,8.53
2019-05-12T06:27:59.842Z,6.65
2019-05-12T06:43:00.994Z,7.95
2019-05-12T06:58:08.284Z,8.25
2019-05-12T07:13:23.343Z,7.90
2019-05-12T07:28:24.938Z,5.60
2019-05-12T07:43:34.475Z,4.10
2019-05-12T07:58:52.962Z,5.58
2019-05-12T08:13:54.883Z,4.40
2019-05-12T08:29:04.263Z,3.62
2019-05-12T08:44:10.590Z,2.70
2019-05-12T08:59:18.471Z,5.08
2019-05-12T09:14:28.200Z,5.37
2019-05-12T09:29:34.914Z,5.55
2019-05-12T09:44:43.816Z,4.95
2019-05-12T09:59:57.361Z,5.30
2019-05-12T10:14:59.110Z,4.97
2019-05-12T10:30:12.383Z,6.85
2019-05-12T10:45:23.318Z,4.75
2019-05-12T11:00:30.175Z,4.62
2019-05-12T11:15:44.828Z,5.50
2019-05-12T11:30:48.362Z,6.72
2019-05-12T11:45:55.928Z,10.80
2019-05-12T12:01:08.143Z,20.70
2019-05-12T12:16:14.090Z,24.10
2019-05-12T12:31:29.716Z,19.42
2019-05-12T12:46:33.919Z,18.30
2019-05-12T13:01:44.285Z,17.07
2019-05-12T13:16:54.680Z,12.53
2019-05-12T13:32:03.208Z,6.45
2019-05-12T13:47:10.339Z,5.62
2019-05-12T14:17:30.962Z,2.87
2019-05-12T14:32:37.328Z,4.55
2019-05-12T15:02:59.124Z,5.65
2019-05-12T15:18:10.126Z,8.03
2019-05-12T15:33:14.428Z,10.10
2019-05-12T15:48:25.599Z,9.45
2019-05-12T16:18:35.242Z,10.48
2019-05-12T16:33:43.629Z,10.63
2019-05-12T16:48:54.508Z,12.07
2019-05-12T17:19:10.521Z,15.78
2019-05-12T17:34:16.355Z,10.88
2019-05-12T17:49:29.430Z,24.02
2019-05-12T18:04:37.015Z,12.25
2019-05-12T18:19:44.472Z,9.63
2019-05-12T18:34:53.799Z,10.43
2019-05-12T18:50:04.487Z,11.40
2019-05-12T19:05:15.283Z,8.35
2019-05-12T19:20:23.989Z,7.20
2019-05-12T19:35:34.153Z,7.35
2019-05-12T19:50:44.475Z,8.43
2019-05-12T20:06:02.912Z,6.83
2019-05-12T20:21:15.633Z,7.60
2019-05-12T20:36:25.971Z,6.50
2019-05-12T20:51:33.915Z,4.53
2019-05-12T21:06:43.057Z,4.85
2019-05-12T21:21:48.779Z,5.78
2019-05-12T21:36:58.810Z,5.08
2019-05-12T22:07:15.073Z,4.08
2019-05-12T22:22:28.091Z,3.95
2019-05-12T22:37:34.831Z,4.47
2019-05-12T22:52:47.343Z,3.47
2019-05-12T23:07:49.246Z,5.92
2019-05-12T23:22:56.906Z,3.60
2019-05-12T23:38:04.560Z,4.40
2019-05-12T23:53:13.792Z,4.95
